createdAt,value
2022-11-15T00:01:20.542Z,7.40
2022-11-15T00:02:41.798Z,7.30
2022-11-15T00:04:04.226Z,7.40
2022-11-15T00:05:25.107Z,7.40
2022-11-15T00:06:48.671Z,7.40
2022-11-15T00:08:10.342Z,7.40
2022-11-15T00:09:32.665Z,7.30
2022-11-15T00:10:57.298Z,7.30
2022-11-15T00:12:19.277Z,7.30
2022-11-15T00:13:41.384Z,7.30
2022-11-15T00:15:02.674Z,7.30
2022-11-15T00:16:24.958Z,7.30
2022-11-15T00:17:50.197Z,7.30
2022-11-15T00:19:12.117Z,7.30
2022-11-15T00:20:35.783Z,7.30
2022-11-15T00:21:57.963Z,7.30
2022-11-15T00:23:19.599Z,7.30
2022-11-15T00:24:40.712Z,7.30
2022-11-15T00:26:03.047Z,7.30
2022-11-15T00:27:24.296Z,7.30
2022-11-15T00:28:46.632Z,7.30
2022-11-15T00:30:08.581Z,7.30
2022-11-15T00:31:30.321Z,7.30
2022-11-15T00:32:51.506Z,7.30
2022-11-15T00:34:13.752Z,7.30
2022-11-15T00:35:35.710Z,7.30
2022-11-15T00:36:59.058Z,7.30
2022-11-15T00:38:20.026Z,7.30
2022-11-15T00:39:41.841Z,7.30
2022-11-15T00:41:09.022Z,7.30
2022-11-15T00:42:31.713Z,7.30
2022-11-15T00:43:52.623Z,7.30
2022-11-15T00:45:14.574Z,7.30
2022-11-15T00:46:36.673Z,7.30
2022-11-15T00:47:58.092Z,7.30
2022-11-15T00:49:20.210Z,7.30
2022-11-15T00:50:42.549Z,7.30
2022-11-15T00:52:05.891Z,7.30
2022-11-15T00:53:26.763Z,7.30
2022-11-15T00:54:49.117Z,7.30
2022-11-15T00:56:11.159Z,7.30
2022-11-15T00:57:32.184Z,7.30
2022-11-15T00:58:55.162Z,7.40
2022-11-15T01:00:17.078Z,7.40
2022-11-15T01:01:39.080Z,7.40
2022-11-15T01:03:01.282Z,7.40
2022-11-15T01:04:23.607Z,7.40
2022-11-15T01:05:45.750Z,7.40
2022-11-15T01:07:08.338Z,7.40
2022-11-15T01:08:30.471Z,7.40
2022-11-15T01:09:51.395Z,7.40
2022-11-15T01:11:14.658Z,7.40
2022-11-15T01:12:35.805Z,7.50
2022-11-15T01:13:58.253Z,7.50
2022-11-15T01:15:20.776Z,7.50
2022-11-15T01:16:42.921Z,7.50
2022-11-15T01:18:04.054Z,7.50
2022-11-15T01:19:26.160Z,7.50
2022-11-15T01:20:47.140Z,7.50
2022-11-15T01:22:10.613Z,7.50
2022-11-15T01:23:32.585Z,7.50
2022-11-15T01:24:55.091Z,7.50
2022-11-15T01:26:18.243Z,7.60
2022-11-15T01:27:39.310Z,7.60
2022-11-15T01:29:01.361Z,7.60
2022-11-15T01:30:22.556Z,7.60
2022-11-15T01:31:44.793Z,7.60
2022-11-15T01:33:06.913Z,7.60
2022-11-15T01:34:27.978Z,7.60
2022-11-15T01:35:49.816Z,7.70
2022-11-15T01:37:12.233Z,7.70
2022-11-15T01:38:34.196Z,7.70
2022-11-15T01:39:55.077Z,7.70
2022-11-15T01:41:20.061Z,7.70
2022-11-15T01:42:41.364Z,7.70
2022-11-15T01:44:41.109Z,7.70
2022-11-15T01:46:08.325Z,7.80
2022-11-15T01:47:34.431Z,7.80
2022-11-15T01:49:00.577Z,7.80
2022-11-15T01:50:28.015Z,7.80
2022-11-15T01:51:50.331Z,7.90
2022-11-15T01:53:13.095Z,7.90
2022-11-15T01:54:35.914Z,7.90
2022-11-15T01:55:58.640Z,7.90
2022-11-15T01:57:20.186Z,7.90
2022-11-15T01:58:43.344Z,7.90
2022-11-15T02:00:08.230Z,7.90
2022-11-15T02:01:32.491Z,7.90
2022-11-15T02:02:53.449Z,7.90
2022-11-15T02:04:19.276Z,7.90
2022-11-15T02:05:41.858Z,8.00
2022-11-15T02:07:05.432Z,8.00
2022-11-15T02:08:29.351Z,8.00
2022-11-15T02:09:51.166Z,8.00
2022-11-15T02:11:13.374Z,8.00
2022-11-15T02:12:35.029Z,8.00
2022-11-15T02:13:58.047Z,8.00
2022-11-15T02:15:20.162Z,8.00
2022-11-15T02:16:55.976Z,8.10
2022-11-15T02:18:26.934Z,8.10
2022-11-15T02:20:36.427Z,8.10
2022-11-15T02:22:16.761Z,8.10
2022-11-15T02:24:34.436Z,8.10
2022-11-15T02:26:13.926Z,8.10
2022-11-15T02:28:17.171Z,8.20
2022-11-15T02:30:03.940Z,8.20
2022-11-15T02:31:33.228Z,8.20
2022-11-15T02:33:00.524Z,8.20
2022-11-15T02:34:32.171Z,8.20
2022-11-15T02:36:01.620Z,8.20
2022-11-15T02:37:41.342Z,8.30
2022-11-15T02:39:12.110Z,8.30
2022-11-15T02:40:47.024Z,8.30
2022-11-15T02:42:31.345Z,8.30
2022-11-15T02:44:01.078Z,8.30
2022-11-15T02:45:31.415Z,8.40
2022-11-15T02:47:15.511Z,8.40
2022-11-15T02:48:38.997Z,8.40
2022-11-15T02:50:03.239Z,8.40
2022-11-15T02:51:25.424Z,8.40
2022-11-15T02:52:50.444Z,8.50
2022-11-15T02:54:17.245Z,8.50
2022-11-15T02:55:43.720Z,8.50
2022-11-15T02:57:09.082Z,8.50
2022-11-15T02:59:12.638Z,8.60
2022-11-15T03:00:43.463Z,8.60
2022-11-15T03:02:25.026Z,8.60
2022-11-15T03:04:01.722Z,8.60
2022-11-15T03:05:36.824Z,8.60
2022-11-15T03:07:06.685Z,8.70
2022-11-15T03:08:34.863Z,8.70
2022-11-15T03:10:04.464Z,8.70
2022-11-15T03:11:26.704Z,8.70
2022-11-15T03:12:56.653Z,8.80
2022-11-15T03:14:26.523Z,8.80
2022-11-15T03:15:57.446Z,8.80
2022-11-15T03:17:27.064Z,8.80
2022-11-15T03:18:54.937Z,8.80
2022-11-15T03:20:18.750Z,8.80
2022-11-15T03:21:43.183Z,8.80
2022-11-15T03:23:10.100Z,8.90
2022-11-15T03:24:35.575Z,8.90
2022-11-15T03:26:00.370Z,8.90
2022-11-15T03:27:28.451Z,8.90
2022-11-15T03:28:55.673Z,8.90
2022-11-15T03:30:19.344Z,8.90
2022-11-15T03:31:51.637Z,8.90
2022-11-15T03:33:15.422Z,9.00
2022-11-15T03:34:43.433Z,9.00
2022-11-15T03:36:04.747Z,9.00
2022-11-15T03:37:32.806Z,9.00
2022-11-15T03:38:59.231Z,9.00
2022-11-15T03:40:27.547Z,9.00
2022-11-15T03:41:58.763Z,9.10
2022-11-15T03:43:36.336Z,9.10
2022-11-15T03:45:09.193Z,9.10
2022-11-15T03:46:39.803Z,9.10
2022-11-15T03:48:07.291Z,9.10
2022-11-15T03:49:35.041Z,9.10
2022-11-15T03:50:57.806Z,9.20
2022-11-15T03:52:20.315Z,9.20
2022-11-15T03:53:43.379Z,9.20
2022-11-15T03:55:07.556Z,9.20
2022-11-15T03:56:29.596Z,9.20
2022-11-15T03:57:56.592Z,9.20
2022-11-15T03:59:17.534Z,9.30
2022-11-15T04:00:39.726Z,9.30
2022-11-15T04:02:01.889Z,9.30
2022-11-15T04:03:23.961Z,9.30
2022-11-15T04:04:46.338Z,9.30
2022-11-15T04:06:08.686Z,9.30
2022-11-15T04:07:30.599Z,9.30
2022-11-15T04:08:53.052Z,9.30
2022-11-15T04:10:15.533Z,9.40
2022-11-15T04:11:36.736Z,9.40
2022-11-15T04:12:58.810Z,9.40
2022-11-15T04:14:20.890Z,9.40
2022-11-15T04:15:43.061Z,9.40
2022-11-15T04:17:04.306Z,9.40
2022-11-15T04:18:26.691Z,9.40
2022-11-15T04:20:07.929Z,9.40
2022-11-15T04:21:47.506Z,9.40
2022-11-15T04:23:32.377Z,9.40
2022-11-15T04:24:54.731Z,9.40
2022-11-15T04:26:23.115Z,9.40
2022-11-15T04:27:43.958Z,9.40
2022-11-15T04:29:23.647Z,9.40
2022-11-15T04:30:45.976Z,9.50
2022-11-15T04:32:08.198Z,9.40
2022-11-15T04:33:30.540Z,9.50
2022-11-15T04:34:54.288Z,9.50
2022-11-15T04:36:34.128Z,9.50
2022-11-15T04:37:56.932Z,9.50
2022-11-15T04:39:17.870Z,9.50
2022-11-15T04:40:40.251Z,9.50
2022-11-15T04:42:01.174Z,9.50
2022-11-15T04:43:23.637Z,9.50
2022-11-15T04:44:45.791Z,9.50
2022-11-15T04:46:07.813Z,9.50
2022-11-15T04:47:29.107Z,9.60
2022-11-15T04:48:55.407Z,9.60
2022-11-15T04:50:21.168Z,9.60
2022-11-15T04:51:42.100Z,9.60
2022-11-15T04:53:04.279Z,9.60
2022-11-15T04:54:25.354Z,9.60
2022-11-15T04:55:48.124Z,9.60
2022-11-15T04:57:10.331Z,9.60
2022-11-15T04:58:31.357Z,9.60
2022-11-15T04:59:53.575Z,9.60
2022-11-15T05:01:16.622Z,9.70
2022-11-15T05:02:56.366Z,9.70
2022-11-15T05:04:21.413Z,9.70
2022-11-15T05:05:43.896Z,9.70
2022-11-15T05:07:06.501Z,9.70
2022-11-15T05:08:28.165Z,9.70
2022-11-15T05:09:50.451Z,9.70
2022-11-15T05:11:11.479Z,9.70
2022-11-15T05:12:33.458Z,9.70
2022-11-15T05:13:55.574Z,9.80
2022-11-15T05:15:16.586Z,9.80
2022-11-15T05:16:39.199Z,9.80
2022-11-15T05:18:00.862Z,9.80
2022-11-15T05:19:23.426Z,9.90
2022-11-15T05:20:45.602Z,9.90
2022-11-15T05:22:07.995Z,9.90
2022-11-15T05:23:29.317Z,9.90
2022-11-15T05:24:51.910Z,9.90
2022-11-15T05:26:16.930Z,9.90
2022-11-15T05:27:38.991Z,9.90
2022-11-15T05:29:01.620Z,10.00
2022-11-15T05:30:23.575Z,10.00
2022-11-15T05:31:45.536Z,10.00
2022-11-15T05:33:07.372Z,10.00
2022-11-15T05:34:29.522Z,10.00
2022-11-15T05:35:59.834Z,10.00
2022-11-15T05:37:22.110Z,10.00
2022-11-15T05:38:44.586Z,10.00
2022-11-15T05:40:08.148Z,10.10
2022-11-15T05:41:34.777Z,10.10
2022-11-15T05:42:57.064Z,10.10
2022-11-15T05:44:23.540Z,10.10
2022-11-15T05:45:45.763Z,10.10
2022-11-15T05:47:11.287Z,10.10
2022-11-15T05:48:32.675Z,10.10
2022-11-15T05:49:55.851Z,10.10
2022-11-15T05:51:21.240Z,10.10
2022-11-15T05:52:43.806Z,10.10
2022-11-15T05:54:05.275Z,10.10
2022-11-15T05:55:27.449Z,10.10
2022-11-15T05:56:49.453Z,10.10
2022-11-15T05:58:10.503Z,10.10
2022-11-15T05:59:33.620Z,10.10
2022-11-15T06:00:56.967Z,10.10
2022-11-15T06:02:19.420Z,10.10
2022-11-15T06:03:40.465Z,10.10
2022-11-15T06:05:02.811Z,10.10
2022-11-15T06:06:26.293Z,10.10
2022-11-15T06:07:47.266Z,10.10
2022-11-15T06:09:09.451Z,10.10
2022-11-15T06:10:31.628Z,10.10
2022-11-15T06:11:53.865Z,10.10
2022-11-15T06:13:16.152Z,10.10
2022-11-15T06:14:38.189Z,10.20
2022-11-15T06:15:59.619Z,10.20
2022-11-15T06:17:21.975Z,10.10
2022-11-15T06:18:43.901Z,10.20
2022-11-15T06:20:06.820Z,10.20
2022-11-15T06:21:30.602Z,10.20
2022-11-15T06:22:51.690Z,10.20
2022-11-15T06:24:13.808Z,10.20
2022-11-15T06:25:34.897Z,10.20
2022-11-15T06:26:57.095Z,10.20
2022-11-15T06:28:18.095Z,10.20
2022-11-15T06:29:39.975Z,10.20
2022-11-15T06:31:05.798Z,10.20
2022-11-15T06:32:27.240Z,10.20
2022-11-15T06:33:50.626Z,10.20
2022-11-15T06:35:11.920Z,10.20
2022-11-15T06:36:37.209Z,10.20
2022-11-15T06:38:03.356Z,10.20
2022-11-15T06:39:25.474Z,10.20
2022-11-15T06:40:46.966Z,10.20
2022-11-15T06:42:10.736Z,10.20
2022-11-15T06:43:33.229Z,10.20
2022-11-15T06:44:55.346Z,10.20
2022-11-15T06:46:17.614Z,10.20
2022-11-15T06:47:47.857Z,10.30
2022-11-15T06:49:10.517Z,10.30
2022-11-15T06:50:33.068Z,10.30
2022-11-15T06:51:56.288Z,10.30
2022-11-15T06:53:18.321Z,10.30
2022-11-15T06:54:40.579Z,10.30
2022-11-15T06:56:03.961Z,10.30
2022-11-15T06:57:26.014Z,10.30
2022-11-15T06:58:48.412Z,10.30
2022-11-15T07:00:11.598Z,10.30
2022-11-15T07:01:33.736Z,10.30
2022-11-15T07:02:54.729Z,10.30
2022-11-15T07:04:17.059Z,10.30
2022-11-15T07:05:38.234Z,10.30
2022-11-15T07:07:01.795Z,10.30
2022-11-15T07:08:24.868Z,10.30
2022-11-15T07:09:46.982Z,10.30
2022-11-15T07:11:11.243Z,10.30
2022-11-15T07:12:33.057Z,10.20
2022-11-15T07:13:55.231Z,10.20
2022-11-15T07:15:17.725Z,10.20
2022-11-15T07:16:40.250Z,10.20
2022-11-15T07:18:03.456Z,10.20
2022-11-15T07:19:24.606Z,10.20
2022-11-15T07:20:46.746Z,10.20
2022-11-15T07:22:09.977Z,10.20
2022-11-15T07:23:33.370Z,10.20
2022-11-15T07:24:55.831Z,10.20
2022-11-15T07:26:17.962Z,10.20
2022-11-15T07:27:40.215Z,10.20
2022-11-15T07:29:02.694Z,10.20
2022-11-15T07:30:24.905Z,10.20
2022-11-15T07:31:47.143Z,10.20
2022-11-15T07:33:09.131Z,10.20
2022-11-15T07:34:31.353Z,10.30
2022-11-15T07:35:53.313Z,10.30
2022-11-15T07:37:19.084Z,10.30
2022-11-15T07:38:42.970Z,10.30
2022-11-15T07:40:05.504Z,10.30
2022-11-15T07:41:27.510Z,10.30
2022-11-15T07:42:54.715Z,10.40
2022-11-15T07:44:16.808Z,10.40
2022-11-15T07:45:44.450Z,10.50
2022-11-15T07:47:05.589Z,10.50
2022-11-15T07:48:42.387Z,10.60
2022-11-15T07:50:06.002Z,10.60
2022-11-15T07:51:28.207Z,10.70
2022-11-15T07:52:57.479Z,10.70
2022-11-15T07:54:19.576Z,10.80
2022-11-15T07:55:43.494Z,10.80
2022-11-15T07:57:07.772Z,10.80
2022-11-15T07:58:30.262Z,10.90
2022-11-15T07:59:51.191Z,10.90
2022-11-15T08:01:14.240Z,10.90
2022-11-15T08:02:36.644Z,10.90
2022-11-15T08:03:58.743Z,10.90
2022-11-15T08:05:20.595Z,10.90
2022-11-15T08:06:42.579Z,11.00
2022-11-15T08:08:06.777Z,11.00
2022-11-15T08:09:28.696Z,11.00
2022-11-15T08:10:50.794Z,10.90
2022-11-15T08:12:13.226Z,11.00
2022-11-15T08:13:35.512Z,11.00
2022-11-15T08:14:58.000Z,11.00
2022-11-15T08:16:20.123Z,11.00
2022-11-15T08:17:42.231Z,11.00
2022-11-15T08:19:04.646Z,11.00
2022-11-15T08:20:30.591Z,11.00
2022-11-15T08:21:52.671Z,11.00
2022-11-15T08:23:16.384Z,11.10
2022-11-15T08:24:38.401Z,11.10
2022-11-15T08:26:05.109Z,11.10
2022-11-15T08:27:26.921Z,11.10
2022-11-15T08:28:49.048Z,11.10
2022-11-15T08:30:13.120Z,11.10
2022-11-15T08:31:35.250Z,11.10
2022-11-15T08:33:00.500Z,11.10
2022-11-15T08:34:23.099Z,11.10
2022-11-15T08:35:45.634Z,11.20
2022-11-15T08:37:08.065Z,11.20
2022-11-15T08:38:32.410Z,11.20
2022-11-15T08:39:54.895Z,11.20
2022-11-15T08:41:24.212Z,11.30
2022-11-15T08:42:48.580Z,11.40
2022-11-15T08:44:10.766Z,11.50
2022-11-15T08:45:33.382Z,11.60
2022-11-15T08:46:55.222Z,11.80
2022-11-15T08:48:17.268Z,12.00
2022-11-15T08:49:39.340Z,12.10
2022-11-15T08:51:01.568Z,12.30
2022-11-15T08:52:23.930Z,12.60
2022-11-15T08:53:47.637Z,13.20
2022-11-15T08:55:10.763Z,13.90
2022-11-15T08:56:32.987Z,14.60
2022-11-15T08:57:54.823Z,15.30
2022-11-15T08:59:16.791Z,15.80
2022-11-15T09:00:38.864Z,16.10
2022-11-15T09:02:01.042Z,16.30
2022-11-15T09:03:23.318Z,16.50
2022-11-15T09:04:46.313Z,16.70
2022-11-15T09:06:08.956Z,17.00
2022-11-15T09:07:31.759Z,17.50
2022-11-15T09:08:55.580Z,18.00
2022-11-15T09:10:18.298Z,18.40
2022-11-15T09:11:40.134Z,18.90
2022-11-15T09:13:02.145Z,19.30
2022-11-15T09:14:24.494Z,19.70
2022-11-15T09:15:46.702Z,20.20
2022-11-15T09:17:10.890Z,20.70
2022-11-15T09:18:33.789Z,21.10
2022-11-15T09:19:55.854Z,21.30
2022-11-15T09:21:18.172Z,21.50
2022-11-15T09:22:40.750Z,21.60
2022-11-15T09:24:05.279Z,21.50
2022-11-15T09:25:26.218Z,21.40
2022-11-15T09:26:48.605Z,21.30
2022-11-15T09:28:11.157Z,21.40
2022-11-15T09:29:33.140Z,21.70
2022-11-15T09:31:00.608Z,21.80
2022-11-15T09:32:23.864Z,22.10
2022-11-15T09:33:47.082Z,22.40
2022-11-15T09:35:09.847Z,22.50
2022-11-15T09:36:31.707Z,22.70
2022-11-15T09:37:56.476Z,23.00
2022-11-15T09:39:19.691Z,23.30
2022-11-15T09:40:41.278Z,23.50
2022-11-15T09:42:38.616Z,23.70
2022-11-15T09:44:25.393Z,23.90
2022-11-15T09:46:02.348Z,24.20
2022-11-15T09:47:58.742Z,24.40
2022-11-15T09:49:34.523Z,24.40
2022-11-15T09:50:50.808Z,24.20
2022-11-15T09:51:57.135Z,23.90
2022-11-15T09:52:59.618Z,23.60
2022-11-15T09:55:49.783Z,23.00
2022-11-15T09:56:53.984Z,22.70
2022-11-15T09:58:08.283Z,22.50
2022-11-15T09:59:39.843Z,22.40
2022-11-15T10:00:49.699Z,22.50
2022-11-15T10:02:03.588Z,22.60
2022-11-15T10:03:16.652Z,22.70
2022-11-15T10:04:21.072Z,22.80
2022-11-15T10:05:27.269Z,22.90
2022-11-15T10:06:30.697Z,23.00
2022-11-15T10:07:42.999Z,23.00
2022-11-15T10:09:02.873Z,23.00
2022-11-15T10:10:16.502Z,23.00
2022-11-15T10:11:42.256Z,22.90
2022-11-15T10:12:50.999Z,22.90
2022-11-15T10:13:58.580Z,22.90
2022-11-15T10:15:07.526Z,22.80
2022-11-15T10:17:59.221Z,22.70
2022-11-15T10:19:10.266Z,22.60
2022-11-15T10:20:21.886Z,22.60
2022-11-15T10:21:45.470Z,22.60
2022-11-15T10:22:51.629Z,22.50
2022-11-15T10:23:56.176Z,22.40
2022-11-15T10:25:19.273Z,22.30
2022-11-15T10:26:26.625Z,22.20
2022-11-15T10:27:31.408Z,22.20
2022-11-15T10:28:35.250Z,22.20
2022-11-15T10:29:44.259Z,22.40
2022-11-15T10:30:51.102Z,22.40
2022-11-15T10:32:08.017Z,22.50
2022-11-15T10:33:22.843Z,22.60
2022-11-15T10:34:27.676Z,22.80
2022-11-15T10:35:31.872Z,22.90
2022-11-15T10:36:35.253Z,23.00
2022-11-15T10:39:00.057Z,23.10
2022-11-15T10:40:14.928Z,23.20
2022-11-15T10:41:31.475Z,23.30
2022-11-15T10:42:33.895Z,23.30
2022-11-15T10:43:39.296Z,23.50
2022-11-15T10:44:45.933Z,23.60
2022-11-15T10:45:50.937Z,23.70
2022-11-15T10:47:37.756Z,23.90
2022-11-15T10:48:42.828Z,23.90
2022-11-15T10:50:01.193Z,23.90
2022-11-15T10:51:23.434Z,23.80
2022-11-15T10:52:26.826Z,23.70
2022-11-15T10:53:35.625Z,23.70
2022-11-15T10:54:42.812Z,23.60
2022-11-15T10:55:51.630Z,23.70
2022-11-15T10:57:00.863Z,23.80
2022-11-15T10:58:08.798Z,23.80
2022-11-15T10:59:25.730Z,23.90
2022-11-15T11:00:36.448Z,24.00
2022-11-15T11:01:48.351Z,24.10
2022-11-15T11:03:01.572Z,24.30
2022-11-15T11:04:07.742Z,24.50
2022-11-15T11:05:38.107Z,24.60
2022-11-15T11:06:54.600Z,24.80
2022-11-15T11:08:00.662Z,25.00
2022-11-15T11:09:21.616Z,25.20
2022-11-15T11:11:52.385Z,25.30
2022-11-15T11:12:57.560Z,25.30
2022-11-15T11:14:15.339Z,25.20
2022-11-15T11:15:20.579Z,25.10
2022-11-15T11:16:53.075Z,25.10
2022-11-15T11:18:10.244Z,25.00
2022-11-15T11:19:59.956Z,24.90
2022-11-15T11:21:10.198Z,24.70
2022-11-15T11:22:28.722Z,24.60
2022-11-15T11:23:51.685Z,24.60
2022-11-15T11:25:13.147Z,24.60
2022-11-15T11:26:37.726Z,24.60
2022-11-15T11:27:56.186Z,24.50
2022-11-15T11:29:14.729Z,24.40
2022-11-15T11:30:22.834Z,24.20
2022-11-15T11:31:39.728Z,24.10
2022-11-15T11:32:59.851Z,23.90
2022-11-15T11:34:14.998Z,23.80
2022-11-15T11:35:25.947Z,23.70
2022-11-15T11:36:41.249Z,23.60
2022-11-15T11:37:51.341Z,23.50
2022-11-15T11:39:09.381Z,23.50
2022-11-15T11:40:26.709Z,23.50
2022-11-15T11:41:49.227Z,23.40
2022-11-15T11:43:00.472Z,23.30
2022-11-15T11:44:28.726Z,23.20
2022-11-15T11:45:58.602Z,23.00
2022-11-15T11:47:05.898Z,22.70
2022-11-15T11:48:15.119Z,22.60
2022-11-15T11:49:27.196Z,22.50
2022-11-15T11:50:30.909Z,22.40
2022-11-15T11:51:39.973Z,22.40
2022-11-15T11:53:03.728Z,22.30
2022-11-15T11:54:14.903Z,22.20
2022-11-15T11:55:23.738Z,22.10
2022-11-15T11:56:31.270Z,22.00
2022-11-15T11:58:49.354Z,21.90
2022-11-15T12:00:00.754Z,21.80
2022-11-15T12:01:16.138Z,21.70
2022-11-15T12:02:30.100Z,21.60
2022-11-15T12:03:45.911Z,21.50
2022-11-15T12:04:55.152Z,21.40
2022-11-15T12:06:03.476Z,21.30
2022-11-15T12:07:19.515Z,21.20
2022-11-15T12:08:35.572Z,21.10
2022-11-15T12:09:47.096Z,21.00
2022-11-15T12:10:59.065Z,20.90
2022-11-15T12:12:11.157Z,20.90
2022-11-15T12:13:21.821Z,20.80
2022-11-15T12:14:34.824Z,20.70
2022-11-15T12:15:50.507Z,20.60
2022-11-15T12:16:54.061Z,20.40
2022-11-15T12:17:59.134Z,20.30
2022-11-15T12:19:04.754Z,20.20
2022-11-15T12:20:19.680Z,20.10
2022-11-15T12:21:34.963Z,20.10
2022-11-15T12:22:45.802Z,20.00
2022-11-15T12:23:56.617Z,20.00
2022-11-15T12:25:07.230Z,20.00
2022-11-15T12:26:19.217Z,20.00
2022-11-15T12:27:33.883Z,20.00
2022-11-15T12:29:05.830Z,20.00
2022-11-15T12:30:16.216Z,20.10
2022-11-15T12:31:26.667Z,20.10
2022-11-15T12:32:35.879Z,20.10
2022-11-15T12:33:42.933Z,20.20
2022-11-15T12:34:50.426Z,20.30
2022-11-15T12:36:02.257Z,20.30
2022-11-15T12:37:57.501Z,20.40
2022-11-15T12:39:05.811Z,20.40
2022-11-15T12:40:38.680Z,20.50
2022-11-15T12:41:44.057Z,20.70
2022-11-15T12:43:05.711Z,20.70
2022-11-15T12:44:15.369Z,20.80
2022-11-15T12:45:31.229Z,20.90
2022-11-15T12:47:07.000Z,20.90
2022-11-15T12:48:52.690Z,20.90
2022-11-15T12:49:56.543Z,20.90
2022-11-15T12:51:00.865Z,20.90
2022-11-15T12:52:13.274Z,20.90
2022-11-15T12:53:31.754Z,20.80
2022-11-15T12:54:59.179Z,20.80
2022-11-15T12:56:24.890Z,20.70
2022-11-15T12:57:40.977Z,20.70
2022-11-15T12:58:47.345Z,20.70
2022-11-15T12:59:51.040Z,20.80
2022-11-15T13:00:54.656Z,20.80
2022-11-15T13:02:01.742Z,20.80
2022-11-15T13:03:37.168Z,20.70
2022-11-15T13:04:41.517Z,20.70
2022-11-15T13:06:42.500Z,20.70
2022-11-15T13:07:59.823Z,20.60
2022-11-15T13:09:03.390Z,20.40
2022-11-15T13:10:34.526Z,20.20
2022-11-15T13:11:54.183Z,20.10
2022-11-15T13:12:59.800Z,20.00
2022-11-15T13:14:03.371Z,19.80
2022-11-15T13:16:00.934Z,19.70
2022-11-15T13:17:13.956Z,19.60
2022-11-15T13:18:39.987Z,19.40
2022-11-15T13:19:43.348Z,19.20
2022-11-15T13:20:47.661Z,19.10
2022-11-15T13:22:09.682Z,18.90
2022-11-15T13:23:17.530Z,18.80
2022-11-15T13:24:21.750Z,18.70
2022-11-15T13:25:57.719Z,18.60
2022-11-15T13:27:01.358Z,18.40
2022-11-15T13:28:11.907Z,18.30
2022-11-15T13:29:20.927Z,18.20
2022-11-15T13:30:25.037Z,18.10
2022-11-15T13:31:36.048Z,18.00
2022-11-15T13:32:41.145Z,17.90
2022-11-15T13:33:45.186Z,17.80
2022-11-15T13:34:53.699Z,17.80
2022-11-15T13:35:59.858Z,17.70
2022-11-15T13:37:03.630Z,17.50
2022-11-15T13:38:06.855Z,17.40
2022-11-15T13:39:29.976Z,17.40
2022-11-15T13:41:50.202Z,17.10
2022-11-15T13:42:52.821Z,17.00
2022-11-15T13:44:01.392Z,17.00
2022-11-15T13:45:07.363Z,16.90
2022-11-15T13:46:15.456Z,16.80
2022-11-15T13:47:22.037Z,16.80
2022-11-15T13:48:24.860Z,16.70
2022-11-15T13:49:33.337Z,16.60
2022-11-15T13:50:40.375Z,16.60
2022-11-15T13:51:48.993Z,16.50
2022-11-15T13:52:52.320Z,16.40
2022-11-15T13:54:00.174Z,16.30
2022-11-15T13:55:14.421Z,16.30
2022-11-15T13:56:18.922Z,16.20
2022-11-15T13:57:26.700Z,16.10
2022-11-15T13:58:34.193Z,16.10
2022-11-15T13:59:47.038Z,16.00
2022-11-15T14:01:02.920Z,15.90
2022-11-15T14:02:16.027Z,15.80
2022-11-15T14:03:26.766Z,15.70
2022-11-15T14:04:34.807Z,15.70
2022-11-15T14:05:39.876Z,15.60
2022-11-15T14:06:51.156Z,15.50
2022-11-15T14:07:58.632Z,15.50
2022-11-15T14:09:26.737Z,15.40
2022-11-15T14:10:34.632Z,15.40
2022-11-15T14:11:37.484Z,15.30
2022-11-15T14:12:41.367Z,15.30
2022-11-15T14:14:01.120Z,15.20
2022-11-15T14:15:28.172Z,15.20
2022-11-15T14:16:36.667Z,15.10
2022-11-15T14:17:45.751Z,15.10
2022-11-15T14:18:54.171Z,15.00
2022-11-15T14:19:58.737Z,15.00
2022-11-15T14:21:09.505Z,15.00
2022-11-15T14:22:21.488Z,14.90
2022-11-15T14:23:29.156Z,14.90
2022-11-15T14:24:32.725Z,14.80
2022-11-15T14:25:38.198Z,14.80
2022-11-15T14:26:43.181Z,14.80
2022-11-15T14:28:07.592Z,14.70
2022-11-15T14:29:26.928Z,14.70
2022-11-15T14:30:32.558Z,14.60
2022-11-15T14:31:38.693Z,14.60
2022-11-15T14:32:50.265Z,14.50
2022-11-15T14:33:53.691Z,14.50
2022-11-15T14:35:00.031Z,14.50
2022-11-15T14:36:08.120Z,14.50
2022-11-15T14:37:25.071Z,14.40
2022-11-15T14:38:27.678Z,14.40
2022-11-15T14:39:31.169Z,14.40
2022-11-15T14:40:34.916Z,14.40
2022-11-15T14:41:39.721Z,14.40
2022-11-15T14:42:42.721Z,14.30
2022-11-15T14:43:48.510Z,14.30
2022-11-15T14:44:52.359Z,14.30
2022-11-15T14:45:54.987Z,14.30
2022-11-15T14:46:58.493Z,14.20
2022-11-15T14:48:00.783Z,14.20
2022-11-15T14:49:04.023Z,14.20
2022-11-15T14:50:07.721Z,14.20
2022-11-15T14:51:17.455Z,14.20
2022-11-15T14:52:32.812Z,14.10
2022-11-15T14:53:36.507Z,14.10
2022-11-15T14:54:41.108Z,14.10
2022-11-15T14:55:46.408Z,14.10
2022-11-15T14:56:49.836Z,14.00
2022-11-15T14:57:53.556Z,14.00
2022-11-15T14:58:56.849Z,14.00
2022-11-15T14:59:59.699Z,14.00
2022-11-15T15:01:27.005Z,14.00
2022-11-15T15:02:30.776Z,13.90
2022-11-15T15:03:34.230Z,13.90
2022-11-15T15:04:37.498Z,13.90
2022-11-15T15:05:43.973Z,13.90
2022-11-15T15:06:47.656Z,13.90
2022-11-15T15:07:52.683Z,13.80
2022-11-15T15:08:56.086Z,13.80
2022-11-15T15:10:24.503Z,13.80
2022-11-15T15:11:26.969Z,13.80
2022-11-15T15:12:31.051Z,13.80
2022-11-15T15:13:34.629Z,13.80
2022-11-15T15:14:37.220Z,13.80
2022-11-15T15:15:40.507Z,13.80
2022-11-15T15:16:43.858Z,13.80
2022-11-15T15:17:46.340Z,13.70
2022-11-15T15:18:49.927Z,13.70
2022-11-15T15:19:52.259Z,13.70
2022-11-15T15:21:01.218Z,13.70
2022-11-15T15:22:05.397Z,13.70
2022-11-15T15:23:16.847Z,13.70
2022-11-15T15:24:20.285Z,13.60
2022-11-15T15:25:28.908Z,13.60
2022-11-15T15:26:34.827Z,13.60
2022-11-15T15:27:38.162Z,13.60
2022-11-15T15:28:41.848Z,13.60
2022-11-15T15:29:44.485Z,13.60
2022-11-15T15:30:47.965Z,13.50
2022-11-15T15:31:51.579Z,13.50
2022-11-15T15:32:57.714Z,13.50
2022-11-15T15:34:03.911Z,13.50
2022-11-15T15:35:06.950Z,13.50
2022-11-15T15:36:14.060Z,13.50
2022-11-15T15:37:25.080Z,13.40
2022-11-15T15:38:28.755Z,13.40
2022-11-15T15:39:31.720Z,13.40
2022-11-15T15:40:35.537Z,13.40
2022-11-15T15:41:40.350Z,13.40
2022-11-15T15:42:42.993Z,13.40
2022-11-15T15:43:46.688Z,13.40
2022-11-15T15:44:51.505Z,13.40
2022-11-15T15:45:55.181Z,13.40
2022-11-15T15:46:59.511Z,13.40
2022-11-15T15:48:02.865Z,13.40
2022-11-15T15:49:06.385Z,13.40
2022-11-15T15:50:24.114Z,13.40
2022-11-15T15:51:27.687Z,13.40
2022-11-15T15:52:30.204Z,13.40
2022-11-15T15:53:33.617Z,13.40
2022-11-15T15:54:35.990Z,13.30
2022-11-15T15:55:40.403Z,13.40
2022-11-15T15:56:44.338Z,13.30
2022-11-15T15:57:48.043Z,13.30
2022-11-15T15:58:53.622Z,13.30
2022-11-15T15:59:55.960Z,13.30
2022-11-15T16:00:59.637Z,13.30
2022-11-15T16:02:02.139Z,13.30
2022-11-15T16:03:07.774Z,13.30
2022-11-15T16:04:10.230Z,13.30
2022-11-15T16:05:14.998Z,13.30
2022-11-15T16:06:39.037Z,13.30
2022-11-15T16:07:44.127Z,13.30
2022-11-15T16:09:08.385Z,13.30
2022-11-15T16:10:25.883Z,13.30
2022-11-15T16:11:29.383Z,13.30
2022-11-15T16:12:34.870Z,13.30
2022-11-15T16:13:38.346Z,13.30
2022-11-15T16:14:40.947Z,13.30
2022-11-15T16:15:49.316Z,13.30
2022-11-15T16:16:51.719Z,13.30
2022-11-15T16:17:57.614Z,13.30
2022-11-15T16:19:02.418Z,13.30
2022-11-15T16:20:07.811Z,13.30
2022-11-15T16:21:11.255Z,13.30
2022-11-15T16:22:13.968Z,13.30
2022-11-15T16:23:20.991Z,13.30
2022-11-15T16:24:25.250Z,13.30
2022-11-15T16:25:27.844Z,13.30
2022-11-15T16:26:32.120Z,13.30
2022-11-15T16:27:35.859Z,13.40
2022-11-15T16:28:39.229Z,13.40
2022-11-15T16:29:42.669Z,13.40
2022-11-15T16:30:46.196Z,13.40
2022-11-15T16:31:50.008Z,13.40
2022-11-15T16:32:52.651Z,13.30
2022-11-15T16:33:56.169Z,13.30
2022-11-15T16:34:59.456Z,13.30
2022-11-15T16:36:03.416Z,13.30
2022-11-15T16:37:07.166Z,13.30
2022-11-15T16:38:16.831Z,13.30
2022-11-15T16:39:20.586Z,13.30
2022-11-15T16:40:31.586Z,13.30
2022-11-15T16:41:35.219Z,13.30
2022-11-15T16:42:40.260Z,13.20
2022-11-15T16:43:43.707Z,13.20
2022-11-15T16:44:47.131Z,13.20
2022-11-15T16:45:53.071Z,13.20
2022-11-15T16:46:56.493Z,13.10
2022-11-15T16:47:58.925Z,13.10
2022-11-15T16:49:02.802Z,13.10
2022-11-15T16:50:06.332Z,13.00
2022-11-15T16:51:10.706Z,13.00
2022-11-15T16:52:18.748Z,13.00
2022-11-15T16:53:24.092Z,12.90
2022-11-15T16:54:27.657Z,12.90
2022-11-15T16:55:30.651Z,12.90
2022-11-15T16:56:34.798Z,12.80
2022-11-15T16:57:39.588Z,12.70
2022-11-15T16:58:43.035Z,12.70
2022-11-15T16:59:46.714Z,12.60
2022-11-15T17:00:53.449Z,12.60
2022-11-15T17:01:56.878Z,12.50
2022-11-15T17:02:59.248Z,12.50